Time;durP1;ratioP1;P1;durP2;ratioP2;P2;SDS_P1;SDS_P2;PMS_P1;PMS_P2;Temp;Humidity;BMP_temperature;BMP_pressure;BME280_temperature;BME280_humidity;BME280_pressure;Samples;Min_cycle;Max_cycle;Signal;HPM_P1;HPM_P2
2021/03/01 00:00:34;;;;;;;;;;;;;;;-0.25;100.00;101165.41;5117415;28;19927;-77
2021/03/01 00:03:01;;;;;;;;;;;;;;;-0.33;100.00;101155.13;5117172;28;19923;-76
2021/03/01 00:05:27;;;;;;;;;;;;;;;-0.42;100.00;101156.09;5098950;28;19923;-77
2021/03/01 00:07:54;;;;;;;;;;;;;;;-0.47;100.00;101153.44;5095470;28;19928;-77
2021/03/01 00:10:20;;;;;;;;;;;;;;;-0.51;100.00;101153.22;5095380;28;20018;-77
2021/03/01 00:12:47;;;;;;;;;;;;;;;-0.42;100.00;101150.59;5096784;28;19928;-77
2021/03/01 00:15:15;;;;;;;;;;;;;;;-0.41;100.00;101146.75;5096439;28;19936;-77
2021/03/01 00:17:42;;;;;;;;;;;;;;;-0.31;100.00;101163.06;5095427;28;19950;-76
2021/03/01 00:20:10;;;;;;;;;;;;;;;-0.40;100.00;101153.88;5078244;28;19924;-77
2021/03/01 00:22:36;;;;;;;;;;;;;;;-0.39;100.00;101147.25;5096498;28;19977;-77
2021/03/01 00:25:04;;;;;;;;;;;;;;;-0.48;100.00;101151.81;5096490;28;20018;-77
2021/03/01 00:27:38;;;;;;;;;;;;;;;-0.33;100.00;101154.28;5095172;28;19928;-77
2021/03/01 00:30:06;;;;;;;;;;;;;;;-0.27;100.00;101147.59;5095194;28;19924;-76
2021/03/01 00:32:32;;;;;;;;;;;;;;;-0.20;100.00;101142.53;5076247;28;20027;-77
2021/03/01 00:34:59;;;;;;;;;;;;;;;-0.39;100.00;101139.00;5095214;28;20514;-77
2021/03/01 00:37:26;;;;;;;;;;;;;;;-0.56;100.00;101134.06;5096352;28;19924;-76
2021/03/01 00:39:52;;;;;;;;;;;;;;;-0.63;100.00;101138.31;5094916;28;20306;-76
2021/03/01 00:42:19;;;;;;;;;;;;;;;-0.82;100.00;101140.28;5094995;28;20016;-77
2021/03/01 00:44:46;;;;;;;;;;;;;;;-0.83;100.00;101133.97;5094719;28;19928;-76
2021/03/01 00:47:12;;;;;;;;;;;;;;;-0.80;100.00;101129.81;5096048;28;19928;-77
2021/03/01 00:49:39;;;;;;;;;;;;;;;-0.83;100.00;101133.16;5095564;28;19924;-77
2021/03/01 00:52:07;;;;;;;;;;;;;;;-0.87;100.00;101132.97;5094802;28;20366;-76
2021/03/01 00:54:33;;;;;;;;;;;;;;;-0.86;100.00;101131.00;5094637;28;19924;-76
2021/03/01 00:57:00;;;;;;;;;;;;;;;-0.86;100.00;101128.25;5094689;28;20023;-77
2021/03/01 00:59:28;;;;;;;;;;;;;;;-0.81;100.00;101444.72;5094580;28;19928;-76
2021/03/01 01:02:04;;;;;;;;;;;;;;;-0.73;100.00;101440.50;5077830;28;19930;-76
2021/03/01 01:04:33;;;;;;;;;;;;;;;-0.75;100.00;101450.97;5094338;28;19935;-76
2021/03/01 01:06:59;;;;;;;;;;;;;;;-0.78;100.00;101452.38;5100501;28;19943;-76
2021/03/01 01:09:26;;;;;;;;;;;;;;;-0.86;100.00;101442.00;5116030;28;19930;-76
2021/03/01 01:11:52;;;;;;;;;;;;;;;-0.87;100.00;101453.28;5115810;28;19927;-76
2021/03/01 01:14:19;;;;;;;;;;;;;;;-0.84;100.00;101449.97;5116092;28;19923;-76
2021/03/01 01:16:45;;;;;;;;;;;;;;;-0.95;100.00;101442.94;5115915;28;19924;-76
2021/03/01 01:19:12;;;;;;;;;;;;;;;-0.95;100.00;101453.91;5107930;28;19931;-76
2021/03/01 01:21:38;;;;;;;;;;;;;;;-1.03;100.00;101446.31;5091547;28;19928;-76
2021/03/01 01:24:05;;;;;;;;;;;;;;;-1.03;100.00;101452.63;5115449;28;19923;-76
2021/03/01 01:26:31;;;;;;;;;;;;;;;-0.96;100.00;101446.78;5115664;28;19977;-76
2021/03/01 01:28:57;;;;;;;;;;;;;;;-0.97;100.00;101456.94;5101199;28;20370;-76
2021/03/01 01:31:24;;;;;;;;;;;;;;;-0.76;100.00;101454.81;5115674;28;19924;-76
2021/03/01 01:33:50;;;;;;;;;;;;;;;-0.82;100.00;101450.50;5097099;28;20274;-76
2021/03/01 01:36:17;;;;;;;;;;;;;;;-0.81;100.00;101457.63;5076981;28;19946;-76
2021/03/01 01:38:49;;;;;;;;;;;;;;;-0.70;100.00;101456.41;5106405;28;20027;-76
2021/03/01 01:41:15;;;;;;;;;;;;;;;-0.84;100.00;101450.78;5115316;28;19976;-76
2021/03/01 01:43:42;;;;;;;;;;;;;;;-0.94;100.00;101444.59;5097431;28;19924;-76
2021/03/01 01:46:08;;;;;;;;;;;;;;;-1.04;100.00;101444.66;5114277;28;20289;-76
2021/03/01 01:48:35;;;;;;;;;;;;;;;-1.05;100.00;101449.38;5114959;28;19969;-76
2021/03/01 01:51:01;;;;;;;;;;;;;;;-1.02;100.00;101437.81;5080024;28;20604;-76
2021/03/01 01:53:28;;;;;;;;;;;;;;;-1.03;100.00;101534.16;5115049;28;19924;-76
2021/03/01 01:55:55;;;;;;;;;;;;;;;-0.93;100.00;101534.88;5097181;28;19930;-75
2021/03/01 01:58:22;;;;;;;;;;;;;;;-0.96;100.00;101523.66;5115030;28;20278;-77
2021/03/01 02:00:49;;;;;;;;;;;;;;;-1.00;100.00;101531.63;5115237;28;20016;-76
2021/03/01 02:03:31;;;;;;;;;;;;;;;-1.05;100.00;101530.88;5114730;28;19928;-76
2021/03/01 02:06:02;;;;;;;;;;;;;;;-1.03;100.00;101534.16;5115002;28;19924;-76
2021/03/01 02:08:47;;;;;;;;;;;;;;;-0.82;100.00;101530.09;5114631;28;19928;-76
2021/03/01 02:11:22;;;;;;;;;;;;;;;-1.05;100.00;101525.38;5113519;28;19928;-77
2021/03/01 02:13:56;;;;;;;;;;;;;;;-1.18;100.00;101515.88;5108504;28;19927;-76
2021/03/01 02:16:34;;;;;;;;;;;;;;;-1.23;100.00;101520.59;5114146;28;19935;-76
2021/03/01 02:19:00;;;;;;;;;;;;;;;-1.17;100.00;101513.94;5114570;28;19923;-76
2021/03/01 02:21:27;;;;;;;;;;;;;;;-1.05;100.00;101514.41;5096307;28;20344;-76
2021/03/01 02:23:54;;;;;;;;;;;;;;;-1.01;100.00;101515.44;5079809;28;20300;-76
2021/03/01 02:26:22;;;;;;;;;;;;;;;-0.97;100.00;101506.34;5114711;28;20271;-76
2021/03/01 02:28:51;;;;;;;;;;;;;;;-0.94;100.00;101519.50;5079324;28;20320;-76
2021/03/01 02:31:18;;;;;;;;;;;;;;;-0.85;100.00;101512.28;5096412;28;19985;-76
2021/03/01 02:33:50;;;;;;;;;;;;;;;-0.80;100.00;101516.88;5114444;28;19923;-76
2021/03/01 02:36:19;;;;;;;;;;;;;;;-0.60;100.00;101525.75;5114568;28;20018;-76
2021/03/01 02:38:47;;;;;;;;;;;;;;;-0.48;100.00;101525.34;5096361;28;19927;-76
2021/03/01 02:41:13;;;;;;;;;;;;;;;-0.26;100.00;101528.41;5114333;28;19934;-76
2021/03/01 02:43:41;;;;;;;;;;;;;;;-0.10;100.00;101532.59;5095914;28;19924;-76
2021/03/01 02:46:09;;;;;;;;;;;;;;;-0.03;100.00;101538.53;5113646;28;19931;-76
2021/03/01 02:48:36;;;;;;;;;;;;;;;-0.03;100.00;101528.38;5095509;28;19923;-76
2021/03/01 02:51:04;;;;;;;;;;;;;;;-0.27;100.00;101518.50;5095655;28;19981;-76
2021/03/01 02:53:31;;;;;;;;;;;;;;;-0.21;100.00;101520.91;5113570;28;19924;-76
2021/03/01 02:55:58;;;;;;;;;;;;;;;-0.24;100.00;101515.16;5078465;28;19951;-76
2021/03/01 02:58:26;;;;;;;;;;;;;;;-0.22;100.00;101523.94;5094955;28;19931;-76
2021/03/01 03:00:53;;;;;;;;;;;;;;;-0.23;100.00;101523.13;5078039;28;19924;-76
2021/03/01 03:03:20;;;;;;;;;;;;;;;-0.18;100.00;101525.00;5113928;28;20000;-76
2021/03/01 03:05:47;;;;;;;;;;;;;;;-0.19;100.00;101528.88;5113877;28;19939;-76
2021/03/01 03:08:17;;;;;;;;;;;;;;;-0.22;100.00;101518.47;5113369;28;20268;-76
2021/03/01 03:10:44;;;;;;;;;;;;;;;-0.18;100.00;101520.31;5096301;28;19928;-77
2021/03/01 03:13:11;;;;;;;;;;;;;;;-0.13;100.00;101523.03;5095380;28;19924;-76
2021/03/01 03:15:39;;;;;;;;;;;;;;;-0.04;100.00;101525.94;5106454;28;19924;-76
2021/03/01 03:18:09;;;;;;;;;;;;;;;0.00;100.00;101538.00;5095653;28;19924;-76
2021/03/01 03:20:36;;;;;;;;;;;;;;;0.09;100.00;101533.47;5113988;28;19971;-76
2021/03/01 03:23:03;;;;;;;;;;;;;;;0.15;100.00;101539.72;5113595;28;20011;-76
2021/03/01 03:25:29;;;;;;;;;;;;;;;0.11;100.00;101940.13;5114088;28;19924;-76
2021/03/01 03:27:57;;;;;;;;;;;;;;;0.20;100.00;101925.44;5113641;28;19984;-76
2021/03/01 03:30:24;;;;;;;;;;;;;;;0.19;100.00;101929.31;5095392;28;19934;-76
2021/03/01 03:32:52;;;;;;;;;;;;;;;0.15;100.00;101925.50;5114124;28;20328;-76
2021/03/01 03:35:18;;;;;;;;;;;;;;;0.12;100.00;101919.75;5113530;28;19951;-76
2021/03/01 03:37:49;;;;;;;;;;;;;;;0.13;100.00;101916.72;5113813;28;19995;-76
2021/03/01 03:40:16;;;;;;;;;;;;;;;0.13;100.00;101913.97;5113689;28;19967;-76
2021/03/01 03:42:43;;;;;;;;;;;;;;;0.11;100.00;101907.91;5113580;28;20022;-76
2021/03/01 03:45:12;;;;;;;;;;;;;;;0.00;100.00;101911.88;5113576;28;20049;-76
2021/03/01 03:47:41;;;;;;;;;;;;;;;-0.03;100.00;101912.41;5113737;28;20321;-76
2021/03/01 03:50:10;;;;;;;;;;;;;;;-0.07;100.00;101911.34;5095343;28;20354;-76
2021/03/01 03:52:38;;;;;;;;;;;;;;;-0.12;100.00;101903.13;5113627;28;19925;-76
2021/03/01 03:55:06;;;;;;;;;;;;;;;-0.18;100.00;101910.59;5113443;28;19931;-76
2021/03/01 03:57:37;;;;;;;;;;;;;;;-0.16;100.00;101904.81;5113259;28;20531;-76
2021/03/01 04:00:09;;;;;;;;;;;;;;;-0.16;100.00;101913.06;5113638;28;19924;-76
2021/03/01 04:02:36;;;;;;;;;;;;;;;-0.20;100.00;101901.78;5113355;28;19924;-77
2021/03/01 04:05:04;;;;;;;;;;;;;;;-0.25;100.00;101910.09;5113481;28;20027;-76
2021/03/01 04:07:32;;;;;;;;;;;;;;;-0.26;100.00;101908.44;5095037;28;19923;-76
2021/03/01 04:09:59;;;;;;;;;;;;;;;-0.28;100.00;101910.66;5114608;28;20442;-76
2021/03/01 04:12:29;;;;;;;;;;;;;;;-0.36;100.00;101905.75;5098678;28;20378;-76
2021/03/01 04:14:58;;;;;;;;;;;;;;;-0.37;100.00;101908.78;5099086;28;20366;-76
2021/03/01 04:17:25;;;;;;;;;;;;;;;-0.49;100.00;101900.06;5116953;28;19927;-76
2021/03/01 04:19:52;;;;;;;;;;;;;;;-0.59;100.00;101898.16;5117150;28;20036;-76
2021/03/01 04:22:19;;;;;;;;;;;;;;;-0.58;100.00;101891.59;5098927;28;20057;-76
2021/03/01 04:24:46;;;;;;;;;;;;;;;-0.55;100.00;101898.44;5116820;28;19924;-76
2021/03/01 04:27:12;;;;;;;;;;;;;;;-0.60;100.00;101896.53;5098511;28;20344;-76
2021/03/01 04:29:40;;;;;;;;;;;;;;;-0.60;100.00;101895.69;5116637;28;19931;-76
2021/03/01 04:32:06;;;;;;;;;;;;;;;-0.63;100.00;101896.25;5116753;28;20301;-76
2021/03/01 04:34:33;;;;;;;;;;;;;;;-0.72;100.00;101892.47;5116771;28;19953;-76
2021/03/01 04:36:59;;;;;;;;;;;;;;;-0.75;100.00;101888.38;5098490;28;19924;-76
2021/03/01 04:39:26;;;;;;;;;;;;;;;-0.78;100.00;101896.31;5098504;28;19931;-76
2021/03/01 04:41:53;;;;;;;;;;;;;;;-0.83;100.00;101882.59;5116307;28;19924;-76
2021/03/01 04:44:20;;;;;;;;;;;;;;;-0.86;100.00;101874.94;5098276;28;20351;-76
2021/03/01 04:46:49;;;;;;;;;;;;;;;-0.91;100.00;101873.03;5081423;28;19924;-76
2021/03/01 04:49:15;;;;;;;;;;;;;;;-1.00;100.00;101874.72;5098462;28;20007;-76
2021/03/01 04:51:42;;;;;;;;;;;;;;;-1.02;100.00;101868.69;5098139;28;19924;-76
2021/03/01 04:54:10;;;;;;;;;;;;;;;-1.02;100.00;101862.38;5098130;28;19923;-76
2021/03/01 04:56:40;;;;;;;;;;;;;;;-1.14;100.00;101868.19;5115969;28;19928;-76
2021/03/01 04:59:07;;;;;;;;;;;;;;;-1.29;100.00;101859.16;5097872;28;19930;-76
2021/03/01 05:01:34;;;;;;;;;;;;;;;-1.38;100.00;101852.59;5098121;28;20026;-76
2021/03/01 05:04:03;;;;;;;;;;;;;;;-1.43;100.00;101852.59;5116013;28;19931;-76
2021/03/01 05:06:30;;;;;;;;;;;;;;;-1.30;100.00;101852.84;5097745;28;19924;-76
2021/03/01 05:08:58;;;;;;;;;;;;;;;-1.33;100.00;101849.88;5097721;28;19923;-76
2021/03/01 05:11:30;;;;;;;;;;;;;;;-1.49;100.00;101849.06;5080913;28;19938;-76
2021/03/01 05:13:57;;;;;;;;;;;;;;;-1.59;100.00;101842.78;5097725;28;19977;-76
2021/03/01 05:16:24;;;;;;;;;;;;;;;-1.59;100.00;101840.84;5116005;28;19935;-76
2021/03/01 05:18:51;;;;;;;;;;;;;;;-1.56;100.00;101842.22;5097645;28;19923;-76
2021/03/01 05:21:17;;;;;;;;;;;;;;;-1.61;100.00;101834.00;5115572;28;19924;-76
2021/03/01 05:23:43;;;;;;;;;;;;;;;-1.61;100.00;101828.50;5115714;28;19927;-76
2021/03/01 05:26:11;;;;;;;;;;;;;;;-1.67;100.00;101833.19;5077058;28;19928;-76
2021/03/01 05:28:37;;;;;;;;;;;;;;;-1.75;100.00;101827.41;5097435;28;19974;-76
2021/03/01 05:31:05;;;;;;;;;;;;;;;-1.76;100.00;101826.63;5097715;28;19945;-76
2021/03/01 05:33:32;;;;;;;;;;;;;;;-1.74;100.00;101824.41;5115468;28;19927;-75
2021/03/01 05:35:58;;;;;;;;;;;;;;;-1.62;100.00;101826.88;5115543;28;19969;-75
2021/03/01 05:38:25;;;;;;;;;;;;;;;-1.65;100.00;101828.22;5096997;28;19930;-76
2021/03/01 05:40:51;;;;;;;;;;;;;;;-1.82;100.00;101816.75;5115171;28;19985;-76
2021/03/01 05:43:18;;;;;;;;;;;;;;;-1.93;100.00;101804.97;5080219;28;20016;-76
2021/03/01 05:45:45;;;;;;;;;;;;;;;-1.99;100.00;101800.59;5097151;28;20412;-76
2021/03/01 05:48:12;;;;;;;;;;;;;;;-1.99;100.00;101803.34;5096975;28;19938;-76
2021/03/01 05:50:40;;;;;;;;;;;;;;;-1.94;100.00;101806.06;5115141;28;19923;-76
2021/03/01 05:53:12;;;;;;;;;;;;;;;-1.94;100.00;101803.31;5097020;28;19962;-76
2021/03/01 05:55:39;;;;;;;;;;;;;;;-2.03;100.00;101783.03;5115062;28;19970;-76
2021/03/01 05:58:07;;;;;;;;;;;;;;;-2.10;100.00;101788.00;5097117;28;19930;-76
2021/03/01 06:00:34;;;;;;;;;;;;;;;-2.13;100.00;101780.31;5084742;28;20014;-76
2021/03/01 06:03:02;;;;;;;;;;;;;;;-2.12;100.00;101781.97;5086326;28;19923;-76
2021/03/01 06:05:28;;;;;;;;;;;;;;;-2.02;100.00;101784.72;5114287;28;19924;-76
2021/03/01 06:07:55;;;;;;;;;;;;;;;-1.98;100.00;101791.28;5096412;28;20016;-76
2021/03/01 06:10:22;;;;;;;;;;;;;;;-2.04;100.00;101780.59;5096515;28;19925;-76
2021/03/01 06:12:49;;;;;;;;;;;;;;;-2.10;100.00;101765.25;5114849;28;19931;-76
2021/03/01 06:15:16;;;;;;;;;;;;;;;-2.22;100.00;101762.78;5096750;28;20008;-76
2021/03/01 06:18:03;;;;;;;;;;;;;;;-2.27;100.00;101761.94;5114708;28;20308;-76
2021/03/01 06:20:30;;;;;;;;;;;;;;;-2.34;100.00;101759.50;5114863;28;19928;-76
2021/03/01 06:22:57;;;;;;;;;;;;;;;-2.36;100.00;101756.22;5096046;28;20306;-76
2021/03/01 06:25:23;;;;;;;;;;;;;;;-2.37;100.00;101743.63;5096483;28;19934;-76
2021/03/01 06:27:52;;;;;;;;;;;;;;;-2.34;100.00;101745.81;5096532;28;19924;-76
2021/03/01 06:30:21;;;;;;;;;;;;;;;-2.26;100.00;101750.72;5114384;28;20277;-76
2021/03/01 06:33:20;;;;;;;;;;;;;;;-2.27;100.00;101742.78;5095770;28;19928;-76
2021/03/01 06:35:55;;;;;;;;;;;;;;;-2.31;100.00;101747.19;5053937;28;19924;-76
2021/03/01 06:38:33;;;;;;;;;;;;;;;-2.43;100.00;101732.94;5090039;28;19923;-76
2021/03/01 06:41:07;;;;;;;;;;;;;;;-2.44;100.00;101729.38;5112276;28;20534;-76
2021/03/01 06:43:34;;;;;;;;;;;;;;;-2.68;100.00;101719.25;5095458;28;19931;-76
2021/03/01 06:46:12;;;;;;;;;;;;;;;-2.56;100.00;101717.06;5095515;28;20047;-76
2021/03/01 06:48:40;;;;;;;;;;;;;;;-2.58;100.00;101730.19;5094346;28;19953;-81
2021/03/01 06:51:08;;;;;;;;;;;;;;;-2.54;100.00;101732.13;5087432;28;19998;-79
2021/03/01 06:53:35;;;;;;;;;;;;;;;-2.54;100.00;101726.63;5107672;28;19923;-78
2021/03/01 06:56:11;;;;;;;;;;;;;;;-2.48;100.00;101731.03;5069436;28;19924;-79
2021/03/01 06:58:45;;;;;;;;;;;;;;;-2.36;100.00;101733.47;5092924;28;19959;-78
2021/03/01 07:01:12;;;;;;;;;;;;;;;-2.43;100.00;101722.81;5090054;28;19928;-77
2021/03/01 07:03:40;;;;;;;;;;;;;;;-2.53;100.00;101722.78;5095652;28;19928;-78
2021/03/01 07:06:08;;;;;;;;;;;;;;;-2.71;100.00;101715.13;5092043;28;19931;-78
2021/03/01 07:08:52;;;;;;;;;;;;;;;-2.66;100.00;101717.88;5087128;28;20027;-77
2021/03/01 07:11:23;;;;;;;;;;;;;;;-2.56;100.00;101717.88;5073167;28;20065;-77
2021/03/01 07:13:59;;;;;;;;;;;;;;;-2.46;100.00;101717.88;5090813;28;20454;-78
2021/03/01 07:16:28;;;;;;;;;;;;;;;-2.53;100.00;101722.00;5084231;28;19924;-78
2021/03/01 07:18:58;;;;;;;;;;;;;;;-2.55;100.00;101718.69;5072297;28;19967;-78
2021/03/01 07:21:26;;;;;;;;;;;;;;;-2.58;100.00;101717.34;5069232;28;19924;-79
2021/03/01 07:23:53;;;;;;;;;;;;;;;-2.61;100.00;101709.66;5070851;28;20015;-79
2021/03/01 07:26:24;;;;;;;;;;;;;;;-2.47;100.00;101715.41;5084606;28;19924;-79
2021/03/01 07:28:51;;;;;;;;;;;;;;;-2.38;100.00;101719.25;5070421;28;19924;-79
2021/03/01 07:31:20;;;;;;;;;;;;;;;-2.35;100.00;101730.47;5067879;28;19924;-79
2021/03/01 07:33:48;;;;;;;;;;;;;;;-2.57;100.00;101720.88;5090449;28;20524;-78
2021/03/01 07:36:16;;;;;;;;;;;;;;;-2.54;100.00;101721.16;5082665;28;19924;-78
2021/03/01 07:38:42;;;;;;;;;;;;;;;-2.51;100.00;101715.13;5062539;28;19932;-79
2021/03/01 07:41:09;;;;;;;;;;;;;;;-2.50;100.00;101716.78;5090343;28;19928;-83
2021/03/01 07:43:41;;;;;;;;;;;;;;;-2.61;100.00;101711.56;5075727;28;20019;-77
2021/03/01 07:46:09;;;;;;;;;;;;;;;-2.40;100.00;101710.47;5062210;28;19931;-77
2021/03/01 07:48:37;;;;;;;;;;;;;;;-2.40;100.00;101716.78;5097366;28;19925;-78
2021/03/01 07:51:04;;;;;;;;;;;;;;;-2.30;100.00;101711.28;5087237;28;19928;-78
2021/03/01 07:53:49;;;;;;;;;;;;;;;-2.07;100.00;101710.72;5097339;28;19954;-78
2021/03/01 07:56:24;;;;;;;;;;;;;;;-1.99;100.00;101714.81;5073535;28;19925;-78
2021/03/01 07:58:58;;;;;;;;;;;;;;;-1.88;100.00;101717.25;5097252;28;19924;-78
2021/03/01 08:01:24;;;;;;;;;;;;;;;-1.78;100.00;101719.16;5062484;28;19934;-78
2021/03/01 08:03:51;;;;;;;;;;;;;;;-1.64;100.00;101719.38;5077483;28;19924;-77
2021/03/01 08:06:18;;;;;;;;;;;;;;;-1.40;100.00;101725.88;5083904;28;20359;-77
2021/03/01 08:08:46;;;;;;;;;;;;;;;-1.33;100.00;101721.72;5075952;28;19924;-77
2021/03/01 08:11:12;;;;;;;;;;;;;;;-1.29;100.00;101720.09;5097218;28;20359;-78
2021/03/01 08:13:38;;;;;;;;;;;;;;;-1.23;100.00;101716.22;5097031;28;19930;-78
2021/03/01 08:16:18;;;;;;;;;;;;;;;-1.17;100.00;101722.50;5095868;28;19924;-77
2021/03/01 08:18:52;;;;;;;;;;;;;;;-1.04;100.00;101722.69;5082416;28;19969;-78
2021/03/01 08:21:19;;;;;;;;;;;;;;;-0.90;100.00;101726.44;5096994;28;19924;-78
2021/03/01 08:23:49;;;;;;;;;;;;;;;-0.81;100.00;101729.41;5096846;28;19923;-78
2021/03/01 08:26:32;;;;;;;;;;;;;;;-0.65;100.00;101740.00;5096947;28;19924;-77
2021/03/01 08:29:03;;;;;;;;;;;;;;;-0.45;100.00;101739.88;5097089;28;19924;-78
2021/03/01 08:31:35;;;;;;;;;;;;;;;-0.38;100.00;101737.59;5092327;28;19928;-79
2021/03/01 08:34:21;;;;;;;;;;;;;;;-0.28;100.00;101725.72;5084467;28;19924;-79
2021/03/01 08:36:48;;;;;;;;;;;;;;;-0.25;100.00;101728.72;5065273;28;20006;-79
2021/03/01 08:39:14;;;;;;;;;;;;;;;-0.15;100.00;101727.78;5097963;28;19924;-80
2021/03/01 08:41:43;;;;;;;;;;;;;;;-0.08;100.00;101734.59;5098025;28;19928;-79
2021/03/01 08:44:20;;;;;;;;;;;;;;;-0.01;100.00;101729.59;5083328;28;19924;-79
2021/03/01 08:46:48;;;;;;;;;;;;;;;0.11;100.00;101750.38;5071806;28;19932;-80
2021/03/01 08:49:21;;;;;;;;;;;;;;;0.31;100.00;101758.41;5067527;28;20328;-80
2021/03/01 08:51:53;;;;;;;;;;;;;;;0.25;100.00;101754.06;5095495;28;19925;-80
2021/03/01 08:54:30;;;;;;;;;;;;;;;0.30;100.00;101762.28;5088346;28;19932;-79
2021/03/01 08:57:06;;;;;;;;;;;;;;;0.36;100.00;101766.63;5084355;28;19924;-80
2021/03/01 08:59:33;;;;;;;;;;;;;;;0.39;100.00;101772.38;5087178;28;19925;-81
2021/03/01 09:02:00;;;;;;;;;;;;;;;0.56;100.00;101766.41;5087442;28;19924;-79
2021/03/01 09:04:27;;;;;;;;;;;;;;;0.65;100.00;101779.19;5095134;28;19924;-79
2021/03/01 09:07:03;;;;;;;;;;;;;;;0.77;100.00;101787.91;5071456;28;19978;-79
2021/03/01 09:09:44;;;;;;;;;;;;;;;0.85;100.00;101797.44;5103202;28;19924;-80
2021/03/01 09:12:16;;;;;;;;;;;;;;;0.95;100.00;101800.91;5106829;28;20008;-81
2021/03/01 09:14:43;;;;;;;;;;;;;;;1.09;100.00;101823.81;5109653;28;19927;-81
2021/03/01 09:17:10;;;;;;;;;;;;;;;1.27;100.00;101834.06;5080223;28;19946;-78
2021/03/01 09:19:57;;;;;;;;;;;;;;;1.31;100.00;101839.81;5115348;28;20435;-80
2021/03/01 09:22:23;;;;;;;;;;;;;;;1.26;100.00;101840.69;5098359;28;19980;-79
2021/03/01 09:24:50;;;;;;;;;;;;;;;1.36;100.00;101846.06;5087372;28;19959;-79
2021/03/01 09:27:32;;;;;;;;;;;;;;;1.53;100.00;101854.66;5084528;28;19930;-78
2021/03/01 09:30:02;;;;;;;;;;;;;;;1.55;100.00;101863.44;5096197;28;19924;-79
2021/03/01 09:32:30;;;;;;;;;;;;;;;1.75;100.00;101874.19;5103467;28;20290;-79
2021/03/01 09:34:57;;;;;;;;;;;;;;;1.80;100.00;101874.09;5102974;28;19924;-79
2021/03/01 09:37:24;;;;;;;;;;;;;;;1.92;100.00;101885.50;5104273;28;20393;-84
2021/03/01 09:39:52;;;;;;;;;;;;;;;2.08;100.00;101894.38;5085897;28;20015;-80
2021/03/01 09:42:19;;;;;;;;;;;;;;;2.21;100.00;101892.81;5103240;28;20414;-77
2021/03/01 09:44:45;;;;;;;;;;;;;;;2.37;100.00;101907.97;5105610;28;20026;-77
2021/03/01 09:47:12;;;;;;;;;;;;;;;2.51;100.00;101914.38;5108202;28;19974;-76
2021/03/01 09:49:40;;;;;;;;;;;;;;;2.56;100.00;101917.06;5079624;28;19923;-79
2021/03/01 09:52:07;;;;;;;;;;;;;;;2.67;100.00;101918.50;5104230;28;19936;-79
2021/03/01 09:54:37;;;;;;;;;;;;;;;2.61;100.00;101925.25;5088895;28;20015;-78
2021/03/01 09:57:05;;;;;;;;;;;;;;;2.73;100.00;101933.88;5110238;28;20042;-78
2021/03/01 09:59:31;;;;;;;;;;;;;;;2.93;100.00;101939.88;5111113;28;19959;-78
2021/03/01 10:02:11;;;;;;;;;;;;;;;2.90;100.00;101945.16;5110803;28;20267;-78
2021/03/01 10:04:38;;;;;;;;;;;;;;;2.88;100.00;101939.94;5111082;28;19927;-79
2021/03/01 10:07:18;;;;;;;;;;;;;;;2.97;100.00;101962.19;5102049;28;19924;-78
2021/03/01 10:09:45;;;;;;;;;;;;;;;2.99;100.00;101962.69;5101730;28;19927;-78
2021/03/01 10:12:12;;;;;;;;;;;;;;;2.99;100.00;101977.31;5103900;28;20305;-77
2021/03/01 10:14:39;;;;;;;;;;;;;;;3.02;100.00;101989.69;5083659;28;19936;-79
2021/03/01 10:17:28;;;;;;;;;;;;;;;3.01;100.00;101986.13;5088742;28;20696;-77
2021/03/01 10:20:09;;;;;;;;;;;;;;;3.01;100.00;102012.94;5092648;28;19924;-78
2021/03/01 10:22:54;;;;;;;;;;;;;;;2.95;100.00;102030.72;5110274;28;20014;-77
2021/03/01 10:25:39;;;;;;;;;;;;;;;3.11;100.00;102068.00;5082185;28;19944;-77
2021/03/01 10:28:26;;;;;;;;;;;;;;;3.14;100.00;102100.56;5105959;28;19924;-77
2021/03/01 10:31:03;;;;;;;;;;;;;;;3.18;100.00;102134.78;5103787;28;20032;-77
2021/03/01 10:33:30;;;;;;;;;;;;;;;3.17;100.00;102315.50;5087843;28;19931;-84
2021/03/01 10:36:10;;;;;;;;;;;;;;;3.19;100.00;102351.97;5109390;28;20025;-80
2021/03/01 10:38:50;;;;;;;;;;;;;;;3.30;100.00;102389.44;5109519;28;19927;-76
2021/03/01 10:41:21;;;;;;;;;;;;;;;3.24;100.00;102415.50;5071137;28;19931;-78
2021/03/01 10:43:55;;;;;;;;;;;;;;;3.35;100.00;102422.53;5103705;28;20382;-77
2021/03/01 10:46:33;;;;;;;;;;;;;;;3.36;100.00;102441.59;5106858;28;19924;-77
2021/03/01 10:49:01;;;;;;;;;;;;;;;3.40;100.00;102469.47;5079066;28;20294;-79
2021/03/01 10:51:28;;;;;;;;;;;;;;;3.44;100.00;102476.06;5090049;28;20256;-79
2021/03/01 10:53:54;;;;;;;;;;;;;;;3.48;100.00;102489.00;5090256;28;19928;-77
2021/03/01 10:56:25;;;;;;;;;;;;;;;3.56;100.00;102495.81;5072312;28;19928;-79
2021/03/01 10:58:55;;;;;;;;;;;;;;;3.57;100.00;102497.47;5105128;28;19992;-78
2021/03/01 11:01:33;;;;;;;;;;;;;;;3.63;100.00;102502.63;5081548;28;19934;-78
2021/03/01 11:03:59;;;;;;;;;;;;;;;3.64;100.00;102506.25;5095657;28;20608;-76
2021/03/01 11:06:27;;;;;;;;;;;;;;;3.76;100.00;102516.91;5050135;28;19924;-77
2021/03/01 11:09:12;;;;;;;;;;;;;;;3.80;100.00;102521.56;5086768;28;19976;-81
2021/03/01 11:11:39;;;;;;;;;;;;;;;3.94;100.00;102530.75;5103703;28;19958;-80
2021/03/01 11:14:12;;;;;;;;;;;;;;;3.76;100.00;102523.25;5074380;28;19924;-80
2021/03/01 11:16:41;;;;;;;;;;;;;;;3.76;100.00;102520.47;5091134;28;20448;-80
2021/03/01 11:19:08;;;;;;;;;;;;;;;3.94;100.00;102539.06;5095497;28;19924;-80
2021/03/01 11:21:35;;;;;;;;;;;;;;;4.03;100.00;102534.50;5084912;28;20026;-80
2021/03/01 11:24:03;;;;;;;;;;;;;;;4.21;100.00;102547.56;5096498;28;19938;-80
2021/03/01 11:26:52;;;;;;;;;;;;;;;4.22;100.00;102542.84;5073041;28;19924;-80
2021/03/01 11:29:19;;;;;;;;;;;;;;;4.23;100.00;102545.31;5096215;28;19924;-81
2021/03/01 11:31:46;;;;;;;;;;;;;;;4.39;100.00;102543.97;5087083;28;19927;-79
2021/03/01 11:34:15;;;;;;;;;;;;;;;4.32;100.00;102540.75;5090806;28;20016;-80
2021/03/01 11:36:41;;;;;;;;;;;;;;;4.19;100.00;102533.19;5102237;28;19932;-80
2021/03/01 11:39:08;;;;;;;;;;;;;;;4.28;100.00;102530.56;5086613;28;19924;-80
2021/03/01 11:41:36;;;;;;;;;;;;;;;4.39;100.00;102521.00;5109776;28;19924;-80
2021/03/01 11:44:02;;;;;;;;;;;;;;;4.51;100.00;102524.16;5095338;28;19967;-79
2021/03/01 11:46:31;;;;;;;;;;;;;;;4.37;100.00;102514.94;5096380;28;19923;-84
2021/03/01 11:48:58;;;;;;;;;;;;;;;4.41;100.00;102521.56;5091825;28;19974;-82
2021/03/01 11:51:25;;;;;;;;;;;;;;;4.49;100.00;102498.69;5078130;28;19924;-79
2021/03/01 11:53:52;;;;;;;;;;;;;;;4.50;100.00;102495.63;5072647;28;19931;-80
2021/03/01 11:56:20;;;;;;;;;;;;;;;4.52;100.00;102493.38;5095404;28;19924;-81
2021/03/01 11:58:47;;;;;;;;;;;;;;;4.59;100.00;102491.03;5090797;28;19931;-80
2021/03/01 12:01:14;;;;;;;;;;;;;;;4.75;100.00;102497.16;5113998;28;20263;-81
2021/03/01 12:03:41;;;;;;;;;;;;;;;4.53;100.00;102483.94;5072532;28;20309;-80
2021/03/01 12:06:07;;;;;;;;;;;;;;;4.46;100.00;102477.13;5103489;28;20439;-80
2021/03/01 12:08:36;;;;;;;;;;;;;;;4.41;100.00;102475.28;5075451;28;19977;-80
2021/03/01 12:11:03;;;;;;;;;;;;;;;4.46;100.00;102472.44;5106006;28;19924;-80
2021/03/01 12:13:29;;;;;;;;;;;;;;;4.65;100.00;102473.22;5092076;28;19931;-80
2021/03/01 12:15:56;;;;;;;;;;;;;;;4.75;100.00;102475.84;5092078;28;19931;-80
2021/03/01 12:18:22;;;;;;;;;;;;;;;4.97;100.00;102473.22;5075280;28;19924;-81
2021/03/01 12:20:49;;;;;;;;;;;;;;;5.19;100.00;102481.69;5095651;28;19931;-80
2021/03/01 12:23:15;;;;;;;;;;;;;;;4.90;100.00;102460.88;5080163;28;19923;-80
2021/03/01 12:25:42;;;;;;;;;;;;;;;4.99;100.00;102468.19;5078901;28;19923;-80
2021/03/01 12:28:08;;;;;;;;;;;;;;;4.74;100.00;102452.00;5085020;28;19928;-80
2021/03/01 12:30:36;;;;;;;;;;;;;;;4.70;100.00;102455.69;5091127;28;19931;-80
2021/03/01 12:33:19;;;;;;;;;;;;;;;4.78;100.00;102447.50;5117976;28;20014;-80
2021/03/01 12:35:45;;;;;;;;;;;;;;;5.03;100.00;102458.13;5089932;28;19932;-80
2021/03/01 12:38:28;;;;;;;;;;;;;;;5.16;100.00;102465.66;5065345;28;19924;-80
2021/03/01 12:40:54;;;;;;;;;;;;;;;5.34;100.00;102464.75;5117162;28;19963;-80